createdAt,value
2017-09-15T00:00:53.121Z,18.00
2017-09-15T00:03:20.645Z,18.20
2017-09-15T00:05:48.169Z,17.70
2017-09-15T00:08:15.693Z,17.80
2017-09-15T00:10:43.982Z,17.77
2017-09-15T00:13:11.745Z,18.37
2017-09-15T00:15:39.266Z,18.07
2017-09-15T00:18:06.790Z,18.10
2017-09-15T00:20:34.314Z,18.30
2017-09-15T00:23:01.833Z,18.37
2017-09-15T00:25:29.395Z,17.70
2017-09-15T00:27:56.918Z,18.13
2017-09-15T00:30:24.442Z,18.43
2017-09-15T00:32:52.027Z,18.10
2017-09-15T00:35:19.550Z,17.80
2017-09-15T00:37:47.874Z,18.17
2017-09-15T00:40:15.398Z,18.00
2017-09-15T00:42:42.923Z,18.33
2017-09-15T00:45:10.455Z,17.83
2017-09-15T00:47:37.980Z,17.90
2017-09-15T00:50:05.530Z,17.90
2017-09-15T00:52:33.054Z,18.10
2017-09-15T00:55:00.581Z,18.03
2017-09-15T00:57:28.106Z,17.80
2017-09-15T00:59:55.638Z,18.10
2017-09-15T01:02:23.954Z,18.13
2017-09-15T01:04:51.486Z,17.70
2017-09-15T01:07:19.787Z,18.07
2017-09-15T01:09:47.311Z,18.30
2017-09-15T01:12:15.609Z,18.00
2017-09-15T01:14:43.161Z,18.10
2017-09-15T01:17:10.686Z,17.90
2017-09-15T01:19:38.205Z,17.80
2017-09-15T01:22:05.730Z,17.90
2017-09-15T01:24:33.261Z,17.90
2017-09-15T01:27:00.822Z,17.70
2017-09-15T01:29:29.133Z,18.10
2017-09-15T01:31:56.660Z,18.00
2017-09-15T01:34:24.953Z,18.20
2017-09-15T01:36:53.245Z,18.00
2017-09-15T01:39:20.814Z,17.50
2017-09-15T01:41:48.414Z,17.97
2017-09-15T01:44:15.937Z,18.10
2017-09-15T01:46:43.457Z,17.67
2017-09-15T01:49:11.746Z,17.80
2017-09-15T01:51:39.298Z,17.50
2017-09-15T01:54:07.591Z,17.90
2017-09-15T01:56:35.121Z,17.40
2017-09-15T01:59:03.415Z,17.57
2017-09-15T02:01:30.942Z,17.70
2017-09-15T02:03:58.499Z,17.83
2017-09-15T02:06:26.024Z,17.50
2017-09-15T02:08:53.550Z,17.80
2017-09-15T02:11:21.074Z,17.50
2017-09-15T02:13:48.597Z,18.03
2017-09-15T02:16:16.145Z,17.67
2017-09-15T02:18:43.841Z,17.60
2017-09-15T02:21:11.367Z,18.17
2017-09-15T02:23:38.892Z,17.80
2017-09-15T02:26:07.179Z,18.03
2017-09-15T02:28:34.726Z,17.80
2017-09-15T02:31:03.013Z,17.90
2017-09-15T02:33:30.538Z,17.67
2017-09-15T02:35:58.842Z,18.03
2017-09-15T02:38:26.365Z,17.80
2017-09-15T02:40:53.936Z,18.20
2017-09-15T02:43:22.226Z,17.50
2017-09-15T02:45:51.152Z,17.80
2017-09-15T02:48:18.687Z,18.03
2017-09-15T02:50:46.204Z,17.70
2017-09-15T02:53:13.826Z,17.97
2017-09-15T02:55:41.358Z,17.43
2017-09-15T02:58:08.883Z,17.80
2017-09-15T03:00:36.409Z,17.67
2017-09-15T03:03:03.933Z,17.40
2017-09-15T03:05:31.512Z,17.97
2017-09-15T03:07:59.033Z,18.00
2017-09-15T03:10:27.337Z,17.90
2017-09-15T03:12:54.865Z,17.40
2017-09-15T03:15:23.178Z,17.47
2017-09-15T03:17:50.732Z,17.30
2017-09-15T03:20:18.258Z,17.40
2017-09-15T03:22:46.552Z,17.23
2017-09-15T03:25:14.085Z,17.40
2017-09-15T03:27:41.605Z,17.40
2017-09-15T03:30:09.155Z,17.37
2017-09-15T03:32:36.682Z,17.20
2017-09-15T03:35:04.206Z,17.10
2017-09-15T03:37:31.742Z,17.17
2017-09-15T03:39:59.265Z,16.90
2017-09-15T03:42:26.813Z,16.90
2017-09-15T03:44:55.118Z,17.17
2017-09-15T03:47:22.649Z,16.90
2017-09-15T03:49:50.180Z,17.10
2017-09-15T03:52:17.714Z,17.10
2017-09-15T03:54:45.238Z,17.30
2017-09-15T03:57:12.757Z,17.03
2017-09-15T03:59:40.281Z,16.63
2017-09-15T04:02:07.806Z,17.30
2017-09-15T04:04:35.330Z,17.10
2017-09-15T04:07:03.623Z,16.90
2017-09-15T04:09:31.910Z,16.67
2017-09-15T04:11:59.449Z,16.60
2017-09-15T04:14:27.742Z,16.27
2017-09-15T04:16:55.273Z,16.10
2017-09-15T04:19:22.799Z,16.40
2017-09-15T04:21:50.322Z,16.20
2017-09-15T04:24:17.851Z,16.00
2017-09-15T04:26:46.165Z,16.67
2017-09-15T04:29:13.697Z,16.60
2017-09-15T04:31:41.990Z,16.70
2017-09-15T04:34:09.522Z,16.57
2017-09-15T04:36:37.809Z,16.33
2017-09-15T04:39:06.097Z,16.40
2017-09-15T04:41:33.621Z,16.80
2017-09-15T04:44:01.142Z,16.20
2017-09-15T04:46:28.667Z,16.27
2017-09-15T04:48:56.190Z,16.70
2017-09-15T04:51:23.715Z,16.57
2017-09-15T04:53:51.242Z,17.07
2017-09-15T04:56:18.769Z,17.87
2017-09-15T04:58:46.293Z,17.23
2017-09-15T05:01:13.814Z,17.30
2017-09-15T05:03:41.363Z,17.23
2017-09-15T05:06:09.657Z,17.00
2017-09-15T05:08:37.178Z,16.27
2017-09-15T05:11:04.734Z,17.00
2017-09-15T05:13:32.258Z,16.40
2017-09-15T05:15:59.786Z,17.27
2017-09-15T05:18:27.334Z,16.77
2017-09-15T05:20:54.863Z,16.20
2017-09-15T05:23:22.390Z,16.20
2017-09-15T05:25:49.946Z,16.57
2017-09-15T05:28:17.478Z,16.70
2017-09-15T05:30:45.004Z,18.00
2017-09-15T05:33:13.326Z,17.20
2017-09-15T05:35:40.851Z,16.60
2017-09-15T05:38:09.142Z,16.43
2017-09-15T05:40:36.705Z,16.63
2017-09-15T05:43:04.229Z,16.40
2017-09-15T05:45:32.526Z,16.20
2017-09-15T05:48:00.074Z,16.70
2017-09-15T05:50:28.366Z,16.73
2017-09-15T05:52:55.889Z,16.83
2017-09-15T05:55:23.450Z,16.50
2017-09-15T05:57:50.979Z,17.50
2017-09-15T06:00:18.507Z,16.03
2017-09-15T06:02:46.057Z,16.87
2017-09-15T06:05:13.586Z,18.47
2017-09-15T06:07:41.105Z,17.60
2017-09-15T06:10:08.632Z,16.80
2017-09-15T06:12:36.158Z,16.70
2017-09-15T06:15:03.713Z,16.70
2017-09-15T06:17:31.241Z,16.70
2017-09-15T06:19:58.770Z,16.60
2017-09-15T06:22:26.302Z,17.20
2017-09-15T06:24:54.589Z,16.80
2017-09-15T06:27:22.905Z,16.37
2017-09-15T06:29:50.434Z,16.23
2017-09-15T06:32:17.963Z,16.57
2017-09-15T06:34:46.268Z,16.90
2017-09-15T06:37:13.794Z,16.70
2017-09-15T06:39:41.346Z,16.83
2017-09-15T06:42:08.870Z,17.00
2017-09-15T06:44:36.398Z,17.50
2017-09-15T06:47:03.923Z,17.30
2017-09-15T06:49:31.449Z,16.93
2017-09-15T06:51:59.002Z,17.23
2017-09-15T06:54:26.529Z,16.40
2017-09-15T06:56:54.059Z,16.53
2017-09-15T06:59:22.358Z,17.00
2017-09-15T07:01:50.646Z,16.67
2017-09-15T07:04:18.211Z,16.60
2017-09-15T07:06:45.741Z,17.30
2017-09-15T07:09:14.031Z,16.97
2017-09-15T07:11:41.555Z,16.90
2017-09-15T07:14:09.082Z,18.80
2017-09-15T07:16:36.638Z,16.97
2017-09-15T07:19:04.163Z,17.67
2017-09-15T07:21:31.690Z,16.60
2017-09-15T07:23:59.994Z,17.63
2017-09-15T07:26:27.521Z,16.70
2017-09-15T07:28:55.073Z,17.27
2017-09-15T07:31:24.106Z,16.80
2017-09-15T07:33:51.635Z,17.37
2017-09-15T07:36:19.937Z,16.60
2017-09-15T07:38:48.230Z,17.40
2017-09-15T07:41:15.786Z,17.60
2017-09-15T07:43:43.313Z,17.83
2017-09-15T07:46:11.613Z,17.47
2017-09-15T07:48:39.138Z,17.60
2017-09-15T07:51:07.567Z,18.17
2017-09-15T07:53:35.169Z,17.03
2017-09-15T07:56:02.698Z,17.53
2017-09-15T07:58:30.221Z,18.17
2017-09-15T08:00:57.749Z,16.93
2017-09-15T08:03:25.363Z,17.53
2017-09-15T08:05:52.918Z,18.50
2017-09-15T08:08:20.441Z,18.30
2017-09-15T08:10:48.734Z,18.37
2017-09-15T08:13:16.266Z,18.23
2017-09-15T08:15:44.564Z,16.93
2017-09-15T08:18:12.114Z,17.70
2017-09-15T08:20:40.410Z,17.80
2017-09-15T08:23:07.934Z,18.33
2017-09-15T08:25:36.235Z,18.30
2017-09-15T08:28:03.768Z,18.70
2017-09-15T08:30:32.092Z,18.53
2017-09-15T08:32:59.626Z,18.03
2017-09-15T08:35:27.155Z,18.60
2017-09-15T08:37:54.691Z,18.57
2017-09-15T08:40:22.223Z,18.70
2017-09-15T08:42:49.799Z,19.00
2017-09-15T08:45:17.326Z,20.23
2017-09-15T08:47:44.855Z,19.03
2017-09-15T08:50:13.154Z,19.30
2017-09-15T08:52:40.673Z,19.27
2017-09-15T08:55:08.405Z,19.30
2017-09-15T08:57:35.930Z,19.50
2017-09-15T09:00:03.461Z,19.30
2017-09-15T09:02:31.765Z,19.57
2017-09-15T09:04:59.290Z,18.60
2017-09-15T09:07:26.842Z,18.50
2017-09-15T09:09:55.134Z,20.33
2017-09-15T09:12:23.426Z,18.93
2017-09-15T09:14:51.718Z,19.60
2017-09-15T09:17:19.242Z,19.23
2017-09-15T09:19:46.790Z,19.97
2017-09-15T09:22:14.319Z,19.80
2017-09-15T09:24:41.846Z,20.53
2017-09-15T09:27:09.378Z,19.00
2017-09-15T09:29:37.675Z,19.20
2017-09-15T09:32:05.225Z,19.33
2017-09-15T09:34:33.522Z,19.37
2017-09-15T09:37:01.045Z,20.00
2017-09-15T09:39:29.342Z,19.33
2017-09-15T09:41:56.866Z,19.30
2017-09-15T09:44:24.413Z,19.83
2017-09-15T09:46:51.947Z,20.37
2017-09-15T09:49:19.470Z,19.43
2017-09-15T09:51:47.004Z,19.80
2017-09-15T09:54:14.530Z,19.50
2017-09-15T09:56:42.090Z,20.03
2017-09-15T09:59:09.613Z,19.10
2017-09-15T10:01:37.138Z,20.43
2017-09-15T10:04:04.666Z,19.50
2017-09-15T10:06:32.211Z,20.00
2017-09-15T10:08:59.764Z,20.20
2017-09-15T10:11:27.286Z,20.23
2017-09-15T10:13:55.590Z,19.43
2017-09-15T10:16:23.118Z,18.67
2017-09-15T10:18:51.490Z,19.57
2017-09-15T10:21:19.823Z,19.23
2017-09-15T10:23:47.362Z,19.40
2017-09-15T10:26:14.890Z,18.70
2017-09-15T10:28:43.178Z,19.20
2017-09-15T10:31:11.465Z,18.53
2017-09-15T10:33:39.018Z,20.80
2017-09-15T10:36:06.546Z,19.80
2017-09-15T10:38:34.083Z,19.90
2017-09-15T10:41:01.610Z,19.43
2017-09-15T10:43:29.131Z,20.20
2017-09-15T10:45:57.454Z,21.07
2017-09-15T10:48:24.990Z,20.37
2017-09-15T10:50:52.520Z,19.93
2017-09-15T10:53:20.825Z,18.97
2017-09-15T10:55:48.358Z,19.47
2017-09-15T10:58:22.446Z,18.77
2017-09-15T11:00:49.970Z,18.20
2017-09-15T11:03:17.494Z,18.00
2017-09-15T11:05:45.787Z,17.83
2017-09-15T11:08:13.318Z,17.80
2017-09-15T11:10:41.648Z,19.03
2017-09-15T11:13:09.202Z,17.90
2017-09-15T11:15:36.734Z,18.97
2017-09-15T11:18:04.262Z,17.67
2017-09-15T11:20:31.882Z,17.70
2017-09-15T11:22:59.437Z,18.30
2017-09-15T11:25:26.966Z,17.90
2017-09-15T11:27:54.494Z,17.90
2017-09-15T11:30:22.018Z,17.83
2017-09-15T11:32:49.545Z,18.07
2017-09-15T11:35:17.098Z,18.70
2017-09-15T11:37:45.386Z,18.10
2017-09-15T11:40:12.917Z,18.77
2017-09-15T11:42:41.201Z,18.57
2017-09-15T11:45:09.494Z,18.60
2017-09-15T11:47:37.048Z,18.60
2017-09-15T11:50:04.579Z,18.10
2017-09-15T11:52:32.877Z,18.33
2017-09-15T11:55:00.401Z,19.13
2017-09-15T11:57:27.929Z,18.20
2017-09-15T11:59:55.485Z,18.00
2017-09-15T12:02:23.010Z,17.80
2017-09-15T12:04:50.537Z,18.10
2017-09-15T12:07:18.073Z,18.87
2017-09-15T12:09:45.610Z,17.60
2017-09-15T12:12:13.276Z,17.80
2017-09-15T12:14:40.806Z,17.80
2017-09-15T12:17:08.338Z,18.47
2017-09-15T12:19:35.867Z,17.43
2017-09-15T12:22:03.396Z,17.73
2017-09-15T12:24:30.960Z,18.57
2017-09-15T12:26:58.486Z,18.10
2017-09-15T12:29:26.780Z,17.97
2017-09-15T12:31:54.306Z,17.60
2017-09-15T12:34:21.831Z,17.40
2017-09-15T12:36:49.386Z,16.97
2017-09-15T12:39:16.909Z,17.47
2017-09-15T12:41:44.435Z,18.00
2017-09-15T12:44:11.973Z,17.43
2017-09-15T12:46:39.617Z,17.40
2017-09-15T12:49:07.170Z,17.70
2017-09-15T12:51:34.694Z,17.50
2017-09-15T12:54:02.989Z,17.77
2017-09-15T12:56:30.515Z,17.43
2017-09-15T12:58:58.861Z,17.60
2017-09-15T13:01:26.480Z,17.10
2017-09-15T13:03:54.004Z,18.63
2017-09-15T13:06:23.034Z,19.97
2017-09-15T13:08:50.563Z,18.33
2017-09-15T13:11:18.859Z,19.70
2017-09-15T13:13:46.413Z,18.50
2017-09-15T13:16:14.702Z,18.60
2017-09-15T13:18:42.223Z,18.90
2017-09-15T13:21:09.746Z,20.00
2017-09-15T13:23:37.270Z,19.27
2017-09-15T13:26:04.832Z,19.03
2017-09-15T13:28:32.359Z,18.63
2017-09-15T13:30:59.885Z,19.03
2017-09-15T13:33:27.406Z,18.63
2017-09-15T13:35:54.934Z,19.23
2017-09-15T13:38:22.486Z,18.37
2017-09-15T13:40:50.010Z,18.63
2017-09-15T13:43:17.565Z,19.10
2017-09-15T13:45:45.096Z,18.53
2017-09-15T13:48:12.627Z,22.53
2017-09-15T13:50:40.950Z,19.40
2017-09-15T13:53:08.491Z,19.50
2017-09-15T13:55:36.017Z,27.33
2017-09-15T13:58:03.541Z,31.03
2017-09-15T14:00:31.098Z,18.77
2017-09-15T14:02:58.649Z,20.73
2017-09-15T14:05:26.183Z,19.10
2017-09-15T14:07:53.710Z,19.27
2017-09-15T14:10:21.239Z,18.73
2017-09-15T14:12:48.766Z,19.03
2017-09-15T14:15:16.334Z,19.50
2017-09-15T14:17:43.865Z,19.00
2017-09-15T14:20:12.158Z,20.00
2017-09-15T14:22:39.692Z,19.10
2017-09-15T14:25:07.987Z,19.80
2017-09-15T14:27:35.542Z,19.00
2017-09-15T14:30:03.095Z,19.13
2017-09-15T14:32:30.626Z,18.40
2017-09-15T14:34:58.158Z,19.00
2017-09-15T14:37:25.688Z,19.90
2017-09-15T14:39:53.469Z,19.30
2017-09-15T14:42:20.999Z,19.67
2017-09-15T14:44:48.526Z,19.90
2017-09-15T14:47:16.054Z,18.20
2017-09-15T14:49:43.580Z,18.87
2017-09-15T14:52:11.134Z,18.70
2017-09-15T14:54:38.668Z,18.50
2017-09-15T14:57:06.965Z,19.20
2017-09-15T14:59:34.501Z,19.03
2017-09-15T15:02:02.810Z,21.37
2017-09-15T15:04:30.378Z,20.00
2017-09-15T15:06:57.904Z,19.33
2017-09-15T15:09:26.222Z,20.63
2017-09-15T15:11:53.750Z,20.77
2017-09-15T15:14:21.286Z,20.47
2017-09-15T15:16:49.608Z,24.37
2017-09-15T15:19:17.138Z,21.23
2017-09-15T15:21:44.694Z,20.33
2017-09-15T15:24:12.991Z,19.40
2017-09-15T15:26:40.521Z,20.17
2017-09-15T15:29:08.838Z,19.23
2017-09-15T15:31:36.368Z,20.30
2017-09-15T15:34:04.669Z,19.80
2017-09-15T15:36:32.196Z,20.17
2017-09-15T15:39:00.490Z,19.77
2017-09-15T15:41:28.050Z,19.67
2017-09-15T15:43:55.577Z,19.23
2017-09-15T15:46:23.882Z,20.63
2017-09-15T15:48:51.410Z,19.53
2017-09-15T15:51:19.702Z,19.57
2017-09-15T15:53:48.408Z,20.03
2017-09-15T15:56:15.930Z,20.23
2017-09-15T15:58:44.226Z,20.57
2017-09-15T16:01:11.753Z,20.33
2017-09-15T16:03:39.290Z,21.17
2017-09-15T16:06:06.863Z,21.03
2017-09-15T16:08:34.404Z,20.30
2017-09-15T16:11:01.940Z,20.37
2017-09-15T16:13:29.462Z,22.27
2017-09-15T16:15:57.757Z,21.23
2017-09-15T16:18:25.314Z,27.10
2017-09-15T16:20:52.842Z,29.13
2017-09-15T16:23:20.371Z,21.77
2017-09-15T16:25:47.902Z,21.00
2017-09-15T16:28:15.434Z,22.80
2017-09-15T16:30:43.762Z,21.60
2017-09-15T16:33:11.294Z,21.80
2017-09-15T16:35:38.822Z,22.00
2017-09-15T16:38:12.830Z,20.43
2017-09-15T16:40:46.954Z,21.73
2017-09-15T16:43:20.866Z,21.07
2017-09-15T16:46:01.818Z,20.63
2017-09-15T16:48:35.852Z,32.10
2017-09-15T16:51:03.382Z,20.60
2017-09-15T16:53:30.913Z,21.00
2017-09-15T16:55:58.440Z,20.93
2017-09-15T16:58:26.021Z,20.10
2017-09-15T17:00:53.554Z,20.63
2017-09-15T17:03:21.078Z,20.50
2017-09-15T17:05:49.382Z,20.70
2017-09-15T17:08:16.910Z,25.27
2017-09-15T17:10:45.251Z,20.70
2017-09-15T17:13:12.790Z,20.50
2017-09-15T17:15:40.326Z,20.67
2017-09-15T17:18:07.903Z,20.70
2017-09-15T17:20:35.908Z,21.90
2017-09-15T17:23:03.462Z,25.20
2017-09-15T17:25:31.201Z,20.90
2017-09-15T17:27:58.725Z,21.37
2017-09-15T17:30:27.018Z,23.63
2017-09-15T17:32:54.545Z,21.50
2017-09-15T17:35:35.512Z,24.07
2017-09-15T17:38:04.776Z,20.80
2017-09-15T17:40:33.434Z,22.87
2017-09-15T17:43:00.965Z,21.90
2017-09-15T17:45:29.258Z,21.73
2017-09-15T17:47:57.555Z,21.47
2017-09-15T17:50:25.091Z,21.33
2017-09-15T17:52:53.410Z,20.97
2017-09-15T17:55:20.948Z,24.00
2017-09-15T17:57:48.513Z,21.90
2017-09-15T18:00:16.043Z,22.77
2017-09-15T18:02:49.620Z,20.90
2017-09-15T18:05:27.800Z,20.70
2017-09-15T18:07:56.745Z,20.67
2017-09-15T18:10:24.277Z,20.67
2017-09-15T18:12:52.600Z,21.83
2017-09-15T18:15:20.154Z,21.57
2017-09-15T18:17:47.673Z,26.40
2017-09-15T18:20:15.981Z,22.40
2017-09-15T18:22:43.533Z,22.10
2017-09-15T18:25:11.073Z,22.67
2017-09-15T18:27:39.361Z,27.60
2017-09-15T18:30:07.662Z,22.33
2017-09-15T18:32:35.202Z,21.30
2017-09-15T18:35:02.759Z,20.30
2017-09-15T18:37:30.290Z,21.00
2017-09-15T18:39:58.590Z,20.60
2017-09-15T18:42:26.122Z,21.30
2017-09-15T18:44:53.751Z,21.20
2017-09-15T18:47:21.302Z,20.80
2017-09-15T18:49:48.837Z,20.97
2017-09-15T18:52:16.379Z,20.90
2017-09-15T18:54:44.686Z,20.07
2017-09-15T18:57:12.212Z,20.10
2017-09-15T18:59:40.628Z,20.93
2017-09-15T19:02:08.175Z,22.80
2017-09-15T19:04:35.753Z,22.60
2017-09-15T19:07:03.277Z,21.97
2017-09-15T19:09:30.806Z,22.63
2017-09-15T19:11:58.385Z,21.20
2017-09-15T19:14:26.678Z,20.70
2017-09-15T19:16:54.614Z,21.40
2017-09-15T19:19:22.930Z,21.63
2017-09-15T19:21:50.467Z,21.80
2017-09-15T19:24:18.854Z,20.90
2017-09-15T19:26:46.390Z,23.10
2017-09-15T19:29:14.682Z,25.20
2017-09-15T19:31:42.223Z,22.87
2017-09-15T19:34:10.517Z,23.30
2017-09-15T19:36:38.082Z,28.30
2017-09-15T19:39:05.613Z,27.50
2017-09-15T19:41:33.917Z,22.90
2017-09-15T19:44:01.443Z,51.53
2017-09-15T19:46:28.969Z,33.47
2017-09-15T19:48:56.518Z,24.33
2017-09-15T19:51:24.042Z,23.37
2017-09-15T19:53:51.571Z,38.40
2017-09-15T19:56:19.095Z,36.50
2017-09-15T19:58:46.690Z,25.87
2017-09-15T20:01:15.021Z,25.53
2017-09-15T20:03:42.542Z,24.40
2017-09-15T20:06:10.830Z,23.80
2017-09-15T20:08:38.357Z,24.10
2017-09-15T20:11:06.680Z,24.67
2017-09-15T20:13:34.230Z,23.87
2017-09-15T20:16:01.774Z,23.70
2017-09-15T20:18:30.066Z,24.93
2017-09-15T20:20:57.598Z,25.70
2017-09-15T20:23:25.923Z,24.60
2017-09-15T20:25:53.474Z,25.93
2017-09-15T20:28:21.003Z,25.90
2017-09-15T20:30:48.544Z,24.37
2017-09-15T20:33:16.846Z,25.50
2017-09-15T20:35:44.370Z,25.20
2017-09-15T20:38:11.922Z,24.37
2017-09-15T20:40:40.950Z,24.53
2017-09-15T20:43:09.255Z,24.63
2017-09-15T20:45:36.781Z,24.60
2017-09-15T20:48:05.073Z,24.70
2017-09-15T20:50:32.621Z,24.63
2017-09-15T20:53:00.151Z,24.60
2017-09-15T20:55:27.674Z,23.90
2017-09-15T20:57:55.222Z,24.57
2017-09-15T21:00:22.765Z,24.03
2017-09-15T21:02:50.325Z,24.80
2017-09-15T21:05:17.852Z,24.27
2017-09-15T21:07:46.149Z,24.87
2017-09-15T21:10:13.675Z,24.00
2017-09-15T21:12:41.206Z,23.67
2017-09-15T21:15:08.753Z,23.30
2017-09-15T21:17:36.278Z,24.33
2017-09-15T21:20:04.565Z,23.37
2017-09-15T21:22:32.100Z,23.50
2017-09-15T21:25:00.398Z,24.93
2017-09-15T21:27:27.954Z,23.63
2017-09-15T21:29:55.482Z,26.43
2017-09-15T21:32:23.006Z,22.87
2017-09-15T21:34:50.533Z,23.13
2017-09-15T21:37:18.109Z,22.60
2017-09-15T21:39:45.661Z,22.97
2017-09-15T21:42:13.195Z,23.73
2017-09-15T21:44:41.481Z,23.90
2017-09-15T21:47:09.005Z,22.77
2017-09-15T21:49:36.530Z,23.33
2017-09-15T21:52:04.090Z,24.17
2017-09-15T21:54:31.615Z,24.10
2017-09-15T21:56:59.141Z,23.57
2017-09-15T21:59:26.670Z,23.50
2017-09-15T22:01:54.204Z,24.37
2017-09-15T22:04:27.509Z,23.27
2017-09-15T22:06:55.055Z,23.27
2017-09-15T22:09:22.574Z,24.00
2017-09-15T22:11:50.861Z,23.53
2017-09-15T22:14:19.140Z,24.30
2017-09-15T22:16:47.446Z,23.90
2017-09-15T22:19:14.992Z,24.77
2017-09-15T22:21:42.521Z,24.10
2017-09-15T22:24:10.820Z,23.80
2017-09-15T22:26:38.345Z,24.47
2017-09-15T22:29:05.949Z,24.40
2017-09-15T22:31:33.470Z,24.20
2017-09-15T22:34:01.797Z,24.23
2017-09-15T22:36:29.315Z,24.47
2017-09-15T22:38:57.597Z,24.70
2017-09-15T22:41:25.900Z,25.53
2017-09-15T22:43:53.415Z,24.80
2017-09-15T22:46:21.712Z,24.60
2017-09-15T22:48:49.228Z,23.93
2017-09-15T22:51:16.746Z,24.43
2017-09-15T22:53:44.285Z,24.30
2017-09-15T22:56:11.817Z,23.77
2017-09-15T22:58:39.337Z,23.67
2017-09-15T23:01:06.858Z,24.20
2017-09-15T23:03:34.385Z,24.03
2017-09-15T23:06:01.928Z,24.17
2017-09-15T23:08:29.453Z,25.47
2017-09-15T23:10:56.960Z,24.27
2017-09-15T23:13:24.484Z,24.33
2017-09-15T23:15:51.996Z,23.97
2017-09-15T23:18:20.301Z,24.80
2017-09-15T23:20:47.808Z,24.93
2017-09-15T23:23:16.091Z,24.70
2017-09-15T23:25:44.380Z,24.20
2017-09-15T23:28:12.656Z,26.00
2017-09-15T23:30:40.962Z,24.40
2017-09-15T23:33:08.480Z,24.00
2017-09-15T23:35:36.771Z,25.70
2017-09-15T23:38:05.057Z,25.90
2017-09-15T23:40:32.580Z,25.50
2017-09-15T23:43:00.120Z,26.03
2017-09-15T23:45:27.636Z,25.63
2017-09-15T23:47:55.148Z,25.67
2017-09-15T23:50:22.664Z,26.03
2017-09-15T23:52:50.184Z,25.57
2017-09-15T23:55:18.500Z,25.57
2017-09-15T23:57:46.015Z,25.30
